Time;durP1;ratioP1;P1;durP2;ratioP2;P2;SDS_P1;SDS_P2;PMS_P1;PMS_P2;Temp;Humidity;BMP_temperature;BMP_pressure;BME280_temperature;BME280_humidity;BME280_pressure;Samples;Min_cycle;Max_cycle;Signal;HPM_P1;HPM_P2
2022/04/14 00:01:13;;;;;;;0.00;0.00;;;11.10;99.90;;;;;;5038510;28;20192;-60
2022/04/14 00:03:40;;;;;;;0.00;0.00;;;10.90;99.90;;;;;;5056573;28;20475;-60
2022/04/14 00:06:06;;;;;;;0.00;0.00;;;11.10;99.90;;;;;;5040536;28;20059;-61
2022/04/14 00:08:32;;;;;;;0.00;0.00;;;11.10;99.90;;;;;;5040219;28;20041;-60
2022/04/14 00:10:58;;;;;;;3.72;0.25;;;11.00;99.90;;;;;;5040581;28;20067;-60
2022/04/14 00:13:24;;;;;;;0.05;0.05;;;11.00;99.90;;;;;;5039205;28;20080;-60
2022/04/14 00:15:50;;;;;;;0.00;0.00;;;11.10;99.90;;;;;;5040243;28;20404;-60
2022/04/14 00:18:16;;;;;;;0.10;0.10;;;11.00;99.90;;;;;;5040101;28;20092;-60
2022/04/14 00:20:42;;;;;;;0.00;0.00;;;11.00;99.90;;;;;;5040344;28;20144;-60
2022/04/14 00:23:08;;;;;;;0.00;0.00;;;11.00;99.90;;;;;;5040438;28;20120;-60
2022/04/14 00:25:34;;;;;;;0.00;0.00;;;10.90;99.90;;;;;;5055793;28;20381;-60
2022/04/14 00:27:59;;;;;;;0.00;0.00;;;10.90;99.90;;;;;;5040694;28;20142;-60
2022/04/14 00:30:25;;;;;;;0.00;0.00;;;10.90;99.90;;;;;;5038563;28;20037;-60
2022/04/14 00:32:51;;;;;;;0.00;0.00;;;10.80;99.90;;;;;;5039141;28;20149;-60
2022/04/14 00:35:16;;;;;;;0.00;0.00;;;10.80;99.90;;;;;;5040012;28;20029;-60
2022/04/14 00:37:42;;;;;;;0.00;0.00;;;10.90;99.90;;;;;;5040550;28;20120;-60
2022/04/14 00:40:08;;;;;;;0.10;0.00;;;10.70;99.90;;;;;;5055422;28;20045;-60
2022/04/14 00:42:34;;;;;;;0.00;0.00;;;10.70;99.90;;;;;;5040033;28;20041;-60
2022/04/14 00:45:00;;;;;;;0.20;0.20;;;10.70;99.90;;;;;;5040042;28;20067;-60
2022/04/14 00:47:25;;;;;;;0.00;0.00;;;10.70;99.90;;;;;;5050627;28;20061;-60
2022/04/14 00:49:51;;;;;;;0.00;0.00;;;10.80;99.90;;;;;;5055644;28;20095;-60
2022/04/14 00:52:17;;;;;;;0.00;0.00;;;10.70;99.90;;;;;;5042963;28;20549;-60
2022/04/14 00:54:42;;;;;;;0.00;0.00;;;10.90;99.90;;;;;;5044258;28;20044;-61
2022/04/14 00:57:08;;;;;;;0.00;0.00;;;10.70;99.90;;;;;;5043934;28;20049;-60
2022/04/14 00:59:34;;;;;;;0.00;0.00;;;10.90;99.90;;;;;;5043015;28;20041;-59
2022/04/14 01:02:00;;;;;;;0.00;0.00;;;10.70;99.90;;;;;;5044425;28;20080;-60
2022/04/14 01:04:27;;;;;;;0.00;0.00;;;10.70;99.90;;;;;;5043189;28;20069;-60
2022/04/14 01:06:53;;;;;;;0.00;0.00;;;10.70;99.90;;;;;;5043070;28;20098;-60
2022/04/14 01:09:19;;;;;;;0.00;0.00;;;10.70;99.90;;;;;;5042255;28;20045;-60
2022/04/14 01:11:50;;;;;;;0.00;0.00;;;10.70;99.90;;;;;;5043396;28;20044;-60
2022/04/14 01:14:20;;;;;;;0.90;0.10;;;10.90;99.90;;;;;;5041986;28;20519;-60
2022/04/14 01:16:46;;;;;;;0.30;0.20;;;10.70;99.90;;;;;;5043860;28;20097;-60
2022/04/14 01:19:12;;;;;;;0.00;0.00;;;10.70;99.90;;;;;;5043479;28;20483;-60
2022/04/14 01:21:44;;;;;;;0.00;0.00;;;10.70;99.90;;;;;;5043134;28;20523;-60
2022/04/14 01:24:10;;;;;;;0.00;0.00;;;10.70;99.90;;;;;;5009520;28;20056;-61
2022/04/14 01:26:37;;;;;;;0.00;0.00;;;10.70;99.90;;;;;;5043558;28;20037;-60
2022/04/14 01:29:04;;;;;;;0.00;0.00;;;10.60;99.90;;;;;;5043174;28;20072;-62
2022/04/14 01:31:30;;;;;;;0.00;0.00;;;10.60;99.90;;;;;;5042302;28;20045;-60
2022/04/14 01:33:55;;;;;;;0.00;0.00;;;10.60;99.90;;;;;;5043856;28;20138;-60
2022/04/14 01:36:21;;;;;;;0.00;0.00;;;10.70;99.90;;;;;;5041579;28;20387;-60
2022/04/14 01:38:47;;;;;;;0.00;0.00;;;10.60;99.90;;;;;;5042641;28;20106;-60
2022/04/14 01:41:12;;;;;;;0.00;0.00;;;10.60;99.90;;;;;;5042923;28;20047;-60
2022/04/14 01:43:38;;;;;;;0.20;0.10;;;10.50;99.90;;;;;;5043352;28;20041;-61
2022/04/14 01:46:08;;;;;;;0.17;0.10;;;10.50;99.90;;;;;;5033052;28;20090;-60
2022/04/14 01:48:34;;;;;;;0.10;0.10;;;10.50;99.90;;;;;;5055871;28;20060;-60
2022/04/14 01:51:00;;;;;;;0.00;0.00;;;11.40;99.90;;;;;;5063162;28;20044;-60
2022/04/14 01:53:25;;;;;;;0.05;0.05;;;10.50;99.90;;;;;;5062590;28;20066;-60
2022/04/14 01:55:51;;;;;;;0.10;0.10;;;10.40;99.90;;;;;;5062597;28;20071;-60
2022/04/14 01:58:17;;;;;;;0.00;0.00;;;10.40;99.90;;;;;;5062390;28;20108;-60
2022/04/14 02:00:42;;;;;;;0.00;0.00;;;10.70;99.90;;;;;;5061980;28;20047;-60
2022/04/14 02:03:08;;;;;;;0.00;0.00;;;10.40;99.90;;;;;;5062653;28;20040;-60
2022/04/14 02:05:34;;;;;;;0.00;0.00;;;10.40;99.90;;;;;;5062039;28;20407;-61
2022/04/14 02:07:59;;;;;;;0.00;0.00;;;10.30;99.90;;;;;;5062725;28;20044;-60
2022/04/14 02:10:25;;;;;;;0.00;0.00;;;10.20;99.90;;;;;;5062168;28;20044;-60
2022/04/14 02:12:50;;;;;;;0.00;0.00;;;10.30;99.90;;;;;;5060713;28;20048;-60
2022/04/14 02:15:17;;;;;;;0.00;0.00;;;10.20;99.90;;;;;;5061446;28;20291;-60
2022/04/14 02:17:43;;;;;;;0.00;0.00;;;10.20;99.90;;;;;;5062717;28;20059;-60
2022/04/14 02:20:08;;;;;;;0.00;0.00;;;10.20;99.90;;;;;;5062858;28;20048;-60
2022/04/14 02:22:42;;;;;;;0.00;0.00;;;10.20;99.90;;;;;;5061783;28;20540;-60
2022/04/14 02:25:08;;;;;;;0.00;0.00;;;10.20;99.90;;;;;;5061337;28;20049;-60
2022/04/14 02:27:34;;;;;;;0.00;0.00;;;10.20;99.90;;;;;;5060746;28;20110;-60
2022/04/14 02:29:59;;;;;;;0.00;0.00;;;10.10;99.90;;;;;;5061123;28;20048;-60
2022/04/14 02:32:25;;;;;;;0.00;0.00;;;10.10;99.90;;;;;;5060424;28;20133;-60
2022/04/14 02:34:51;;;;;;;0.00;0.00;;;10.10;99.90;;;;;;5062087;28;20123;-60
2022/04/14 02:37:16;;;;;;;0.00;0.00;;;10.10;99.90;;;;;;5061615;28;20041;-60
2022/04/14 02:39:42;;;;;;;0.00;0.00;;;10.00;99.90;;;;;;5061543;28;20040;-60
2022/04/14 02:42:07;;;;;;;0.00;0.00;;;10.00;99.90;;;;;;5062417;28;20036;-60
2022/04/14 02:44:33;;;;;;;0.00;0.00;;;9.90;99.90;;;;;;5059249;28;20036;-60
2022/04/14 02:46:58;;;;;;;0.00;0.00;;;10.00;99.90;;;;;;5055034;28;20724;-60
2022/04/14 02:49:24;;;;;;;0.00;0.00;;;10.10;99.90;;;;;;5042016;28;20590;-60
2022/04/14 02:51:50;;;;;;;0.00;0.00;;;10.10;99.90;;;;;;5042140;28;20052;-60
2022/04/14 02:54:16;;;;;;;0.00;0.00;;;10.00;99.90;;;;;;5041383;28;20052;-60
2022/04/14 02:56:42;;;;;;;0.00;0.00;;;10.00;99.90;;;;;;5041166;28;20041;-60
2022/04/14 02:59:07;;;;;;;0.00;0.00;;;10.00;99.90;;;;;;5041196;28;20148;-60
2022/04/14 03:01:33;;;;;;;0.00;0.00;;;10.10;99.90;;;;;;5041542;28;20597;-60
2022/04/14 03:03:58;;;;;;;0.00;0.00;;;9.90;99.90;;;;;;5040519;28;20055;-60
2022/04/14 03:06:24;;;;;;;0.00;0.00;;;9.90;99.90;;;;;;5040585;28;20045;-60
2022/04/14 03:08:49;;;;;;;0.00;0.00;;;10.00;99.90;;;;;;5041846;28;20051;-60
2022/04/14 03:11:15;;;;;;;0.00;0.00;;;10.00;99.90;;;;;;5056583;28;20066;-61
2022/04/14 03:13:42;;;;;;;0.00;0.00;;;9.90;99.90;;;;;;5040310;28;20111;-60
2022/04/14 03:16:08;;;;;;;0.00;0.00;;;9.90;99.90;;;;;;5040509;28;20053;-60
2022/04/14 03:18:33;;;;;;;0.00;0.00;;;9.80;99.90;;;;;;5040869;28;20142;-60
2022/04/14 03:21:00;;;;;;;0.00;0.00;;;9.80;99.90;;;;;;5041647;28;20502;-60
2022/04/14 03:23:26;;;;;;;0.00;0.00;;;9.80;99.90;;;;;;5039186;28;20107;-60
2022/04/14 03:25:52;;;;;;;0.00;0.00;;;9.80;99.90;;;;;;5041133;28;20045;-60
2022/04/14 03:28:17;;;;;;;0.10;0.10;;;9.80;99.90;;;;;;5040777;28;20043;-60
2022/04/14 03:30:43;;;;;;;0.00;0.00;;;9.80;99.90;;;;;;5040098;28;20399;-60
2022/04/14 03:33:08;;;;;;;0.00;0.00;;;9.70;99.90;;;;;;5041582;28;20045;-60
2022/04/14 03:35:34;;;;;;;0.00;0.00;;;9.70;99.90;;;;;;5041148;28;20033;-60
2022/04/14 03:38:00;;;;;;;0.00;0.00;;;9.70;99.90;;;;;;5041038;28;20837;-60
2022/04/14 03:40:25;;;;;;;0.00;0.00;;;9.60;99.90;;;;;;5040080;28;20094;-60
2022/04/14 03:42:51;;;;;;;0.00;0.00;;;10.30;99.90;;;;;;5041233;28;20056;-60
2022/04/14 03:45:17;;;;;;;0.00;0.00;;;9.60;99.90;;;;;;5056596;28;20024;-60
2022/04/14 03:47:42;;;;;;;0.65;0.25;;;9.50;99.90;;;;;;5048876;28;20053;-60
2022/04/14 03:50:08;;;;;;;0.00;0.00;;;9.50;99.90;;;;;;5040739;28;20036;-60
2022/04/14 03:52:34;;;;;;;0.00;0.00;;;9.40;99.90;;;;;;5040504;28;20045;-59
2022/04/14 03:54:59;;;;;;;0.00;0.00;;;9.40;99.90;;;;;;5040904;28;20056;-60
2022/04/14 03:57:25;;;;;;;0.00;0.00;;;9.40;99.90;;;;;;5038440;28;20075;-60
2022/04/14 03:59:51;;;;;;;0.00;0.00;;;9.40;99.90;;;;;;5039840;28;20528;-60
2022/04/14 04:02:17;;;;;;;0.00;0.00;;;9.30;99.90;;;;;;5040343;28;20048;-60
2022/04/14 04:04:43;;;;;;;0.65;0.15;;;9.30;99.90;;;;;;5039904;28;20049;-63
2022/04/14 04:07:08;;;;;;;0.00;0.00;;;9.30;99.90;;;;;;5040411;28;20083;-60
2022/04/14 04:09:34;;;;;;;0.00;0.00;;;9.50;99.90;;;;;;5038585;28;20041;-60
2022/04/14 04:12:01;;;;;;;0.20;0.20;;;9.30;99.90;;;;;;5040608;28;20404;-60
2022/04/14 04:14:27;;;;;;;0.00;0.00;;;9.20;99.90;;;;;;5037967;28;20083;-59
2022/04/14 04:16:52;;;;;;;0.00;0.00;;;9.20;99.90;;;;;;5040453;28;20053;-60
2022/04/14 04:19:18;;;;;;;0.00;0.00;;;9.20;99.90;;;;;;5040038;28;20452;-60
2022/04/14 04:21:44;;;;;;;0.00;0.00;;;9.20;99.90;;;;;;5040493;28;20049;-59
2022/04/14 04:24:09;;;;;;;0.00;0.00;;;9.10;99.90;;;;;;5055545;28;20084;-60
2022/04/14 04:26:35;;;;;;;0.00;0.00;;;9.10;99.90;;;;;;5043033;28;20048;-60
2022/04/14 04:29:00;;;;;;;0.00;0.00;;;9.00;99.90;;;;;;5043945;28;20037;-60
2022/04/14 04:31:26;;;;;;;0.00;0.00;;;9.00;99.90;;;;;;5059606;28;20064;-59
2022/04/14 04:33:53;;;;;;;0.13;0.10;;;9.00;99.90;;;;;;5043019;28;20136;-60
2022/04/14 04:36:18;;;;;;;0.00;0.00;;;9.00;99.90;;;;;;5042703;28;20626;-60
2022/04/14 04:38:44;;;;;;;0.00;0.00;;;9.00;99.90;;;;;;5044402;28;20033;-59
2022/04/14 04:41:09;;;;;;;0.00;0.00;;;8.90;99.90;;;;;;5043854;28;20048;-61
2022/04/14 04:43:35;;;;;;;0.00;0.00;;;8.90;99.90;;;;;;5043298;28;20052;-60
2022/04/14 04:46:01;;;;;;;0.00;0.00;;;9.00;99.90;;;;;;5045766;28;20110;-60
2022/04/14 04:48:27;;;;;;;0.00;0.00;;;8.90;99.90;;;;;;5051791;28;20064;-60
2022/04/14 04:50:52;;;;;;;0.00;0.00;;;8.90;99.90;;;;;;5043518;28;20040;-59
2022/04/14 04:53:18;;;;;;;0.00;0.00;;;8.80;99.90;;;;;;5043709;28;20084;-60
2022/04/14 04:55:44;;;;;;;0.28;0.28;;;8.90;99.90;;;;;;5044368;28;20041;-60
2022/04/14 04:58:09;;;;;;;0.00;0.00;;;8.80;99.90;;;;;;5044382;28;20067;-60
2022/04/14 05:00:35;;;;;;;0.00;0.00;;;8.80;99.90;;;;;;5041613;28;20056;-61
2022/04/14 05:03:01;;;;;;;0.00;0.00;;;8.80;99.90;;;;;;5044302;28;20048;-60
2022/04/14 05:05:26;;;;;;;0.00;0.00;;;8.80;99.90;;;;;;5042360;28;20051;-60
2022/04/14 05:07:52;;;;;;;0.00;0.00;;;8.80;99.90;;;;;;5043655;28;20503;-60
2022/04/14 05:10:18;;;;;;;0.00;0.00;;;8.70;99.90;;;;;;5041870;28;20040;-60
2022/04/14 05:12:43;;;;;;;0.10;0.10;;;8.70;99.90;;;;;;5043877;28;20057;-60
2022/04/14 05:15:10;;;;;;;0.00;0.00;;;8.70;99.90;;;;;;5043413;28;20045;-62
2022/04/14 05:17:35;;;;;;;0.20;0.20;;;8.80;99.90;;;;;;5043148;28;20120;-61
2022/04/14 05:20:02;;;;;;;0.00;0.00;;;8.70;99.90;;;;;;5043906;28;20125;-60
2022/04/14 05:22:27;;;;;;;0.00;0.00;;;8.50;99.90;;;;;;5043274;28;20080;-60
2022/04/14 05:24:53;;;;;;;0.00;0.00;;;8.50;99.90;;;;;;5043413;28;20079;-60
2022/04/14 05:27:19;;;;;;;0.00;0.00;;;8.40;99.90;;;;;;5042614;28;20530;-61
2022/04/14 05:29:44;;;;;;;0.10;0.10;;;8.50;99.90;;;;;;5042855;28;20045;-60
2022/04/14 05:32:10;;;;;;;0.00;0.00;;;8.50;99.90;;;;;;5042207;28;20139;-60
2022/04/14 05:34:35;;;;;;;0.00;0.00;;;8.60;99.90;;;;;;5041563;28;20060;-60
2022/04/14 05:37:01;;;;;;;0.00;0.00;;;8.60;99.90;;;;;;5042898;28;20053;-60
2022/04/14 05:39:26;;;;;;;0.00;0.00;;;8.60;99.90;;;;;;5042263;28;20041;-60
2022/04/14 05:41:52;;;;;;;0.00;0.00;;;8.70;99.90;;;;;;5041953;28;20429;-60
2022/04/14 05:44:19;;;;;;;0.00;0.00;;;8.80;99.90;;;;;;5041680;28;20497;-60
2022/04/14 05:46:44;;;;;;;0.00;0.00;;;9.00;99.90;;;;;;5052513;28;20053;-60
2022/04/14 05:49:10;;;;;;;0.00;0.00;;;9.20;99.90;;;;;;5044764;28;20102;-61
2022/04/14 05:51:35;;;;;;;0.00;0.00;;;9.50;99.90;;;;;;5058391;28;20383;-59
2022/04/14 05:54:01;;;;;;;0.00;0.00;;;9.80;99.90;;;;;;5042703;28;20136;-60
2022/04/14 05:56:26;;;;;;;0.00;0.00;;;10.40;99.90;;;;;;5041307;28;20545;-60
2022/04/14 05:58:55;;;;;;;0.08;0.08;;;10.30;99.90;;;;;;5042248;28;20036;-60
2022/04/14 06:01:21;;;;;;;0.00;0.00;;;10.40;99.90;;;;;;5040100;28;20049;-60
2022/04/14 06:03:46;;;;;;;0.08;0.08;;;10.60;99.90;;;;;;5042763;28;20040;-60
2022/04/14 06:06:13;;;;;;;1.08;0.10;;;10.80;99.90;;;;;;5042574;28;20476;-60
2022/04/14 06:08:39;;;;;;;0.00;0.00;;;11.10;99.90;;;;;;5043798;28;20068;-60
2022/04/14 06:11:06;;;;;;;0.00;0.00;;;11.60;99.90;;;;;;5042634;28;20048;-60
2022/04/14 06:13:33;;;;;;;0.00;0.00;;;11.50;99.90;;;;;;5039746;28;20162;-60
2022/04/14 06:15:58;;;;;;;0.00;0.00;;;11.60;99.90;;;;;;5042403;28;20132;-59
2022/04/14 06:18:24;;;;;;;0.10;0.10;;;11.60;99.90;;;;;;5041615;28;20175;-59
2022/04/14 06:20:52;;;;;;;0.20;0.20;;;11.90;99.90;;;;;;5042468;28;20041;-60
2022/04/14 06:23:18;;;;;;;0.10;0.10;;;11.80;99.90;;;;;;5041990;28;20048;-60
2022/04/14 06:25:50;;;;;;;0.13;0.13;;;11.80;99.90;;;;;;5040740;28;20041;-59
2022/04/14 06:28:17;;;;;;;0.00;0.00;;;11.80;99.90;;;;;;5040025;28;20496;-60
2022/04/14 06:30:44;;;;;;;0.00;0.00;;;11.90;99.90;;;;;;5042273;28;20055;-60
2022/04/14 06:33:09;;;;;;;0.20;0.20;;;11.90;99.90;;;;;;5042078;28;20131;-61
2022/04/14 06:35:35;;;;;;;0.20;0.20;;;11.70;99.90;;;;;;5040205;28;20128;-59
2022/04/14 06:38:01;;;;;;;1.02;0.85;;;11.70;99.90;;;;;;5042332;28;20098;-59
2022/04/14 06:40:27;;;;;;;0.00;0.00;;;11.90;99.90;;;;;;5041905;28;20077;-60
2022/04/14 06:42:52;;;;;;;0.20;0.20;;;13.10;99.90;;;;;;5041833;28;20151;-60
2022/04/14 06:45:19;;;;;;;0.00;0.00;;;12.30;99.90;;;;;;5041219;28;20406;-59
2022/04/14 06:47:45;;;;;;;0.00;0.00;;;12.30;99.90;;;;;;5051178;28;20058;-60
2022/04/14 06:50:10;;;;;;;0.20;0.20;;;12.30;99.90;;;;;;5041290;28;20049;-60
2022/04/14 06:52:37;;;;;;;0.10;0.10;;;13.60;99.90;;;;;;5041587;28;20063;-60
2022/04/14 06:55:04;;;;;;;0.20;0.20;;;12.40;99.90;;;;;;5042081;28;20040;-60
2022/04/14 06:57:29;;;;;;;0.20;0.20;;;12.90;99.90;;;;;;5056789;28;20555;-60
2022/04/14 06:59:55;;;;;;;0.00;0.00;;;13.00;99.90;;;;;;5039846;28;20044;-60
2022/04/14 07:02:20;;;;;;;0.45;0.45;;;13.20;99.90;;;;;;5039577;28;20095;-60
2022/04/14 07:04:46;;;;;;;0.00;0.00;;;13.30;99.90;;;;;;5041757;28;20040;-60
2022/04/14 07:07:12;;;;;;;0.00;0.00;;;13.20;99.90;;;;;;5041525;28;20395;-60
2022/04/14 07:09:37;;;;;;;0.00;0.00;;;13.60;99.90;;;;;;5041554;28;20040;-59
2022/04/14 07:12:04;;;;;;;0.00;0.00;;;13.80;99.90;;;;;;5041515;28;20059;-60
2022/04/14 07:14:30;;;;;;;0.25;0.25;;;13.70;99.90;;;;;;5039856;28;20053;-60
2022/04/14 07:17:00;;;;;;;0.20;0.20;;;13.80;99.90;;;;;;5040096;28;20084;-60
2022/04/14 07:19:26;;;;;;;0.13;0.10;;;13.90;99.90;;;;;;5040185;28;20110;-60
2022/04/14 07:21:52;;;;;;;0.00;0.00;;;14.00;99.90;;;;;;5040210;28;20095;-60
2022/04/14 07:24:18;;;;;;;0.00;0.00;;;14.10;99.90;;;;;;5041070;28;20446;-60
2022/04/14 07:26:44;;;;;;;0.10;0.10;;;14.30;99.90;;;;;;5040802;28;20044;-60
2022/04/14 07:29:10;;;;;;;0.20;0.10;;;14.70;99.90;;;;;;5040129;28;20483;-60
2022/04/14 07:31:36;;;;;;;0.00;0.00;;;14.40;99.90;;;;;;5041236;28;20082;-61
2022/04/14 07:34:04;;;;;;;0.00;0.00;;;14.60;99.90;;;;;;5056577;28;20041;-62
2022/04/14 07:36:30;;;;;;;0.15;0.10;;;14.80;99.90;;;;;;5040298;28;20063;-59
2022/04/14 07:38:55;;;;;;;0.00;0.00;;;14.40;99.90;;;;;;5041342;28;20049;-59
2022/04/14 07:41:21;;;;;;;0.00;0.00;;;14.50;99.90;;;;;;5040709;28;20146;-59
2022/04/14 07:43:46;;;;;;;0.00;0.00;;;14.50;99.90;;;;;;5021971;28;20040;-59
2022/04/14 07:46:12;;;;;;;0.00;0.00;;;14.50;99.90;;;;;;5045563;28;20053;-59
2022/04/14 07:48:38;;;;;;;0.10;0.10;;;14.60;99.90;;;;;;5047471;28;20586;-61
2022/04/14 07:51:04;;;;;;;0.00;0.00;;;14.70;99.90;;;;;;5041001;28;20041;-59
2022/04/14 07:53:30;;;;;;;0.00;0.00;;;14.90;99.90;;;;;;5038443;28;20687;-60
2022/04/14 07:55:56;;;;;;;0.75;0.45;;;15.10;99.90;;;;;;5041071;28;20048;-61
2022/04/14 07:58:21;;;;;;;0.10;0.10;;;14.80;99.90;;;;;;5039667;28;20052;-59
2022/04/14 08:00:50;;;;;;;0.20;0.20;;;14.50;99.90;;;;;;5039839;28;20044;-59
2022/04/14 08:03:16;;;;;;;0.10;0.10;;;14.70;99.90;;;;;;5040271;28;20055;-59
2022/04/14 08:05:44;;;;;;;0.00;0.00;;;14.90;99.90;;;;;;5040726;28;20041;-60
2022/04/14 08:08:12;;;;;;;0.00;0.00;;;15.20;99.90;;;;;;5039315;28;20469;-60
2022/04/14 08:10:42;;;;;;;0.03;0.03;;;14.90;99.90;;;;;;5040315;28;20037;-59
2022/04/14 08:13:08;;;;;;;0.20;0.20;;;15.00;99.90;;;;;;5039837;28;20049;-59
2022/04/14 08:15:34;;;;;;;0.10;0.10;;;15.00;99.90;;;;;;5040341;28;20045;-59
2022/04/14 08:18:00;;;;;;;0.05;0.05;;;14.90;99.90;;;;;;5040352;28;20416;-58
2022/04/14 08:20:27;;;;;;;0.00;0.00;;;15.10;99.90;;;;;;5040107;28;20037;-59
2022/04/14 08:22:57;;;;;;;0.03;0.03;;;15.30;99.90;;;;;;5039249;28;20084;-59
2022/04/14 08:25:29;;;;;;;0.10;0.10;;;15.50;99.90;;;;;;5037909;28;20051;-59
2022/04/14 08:27:56;;;;;;;0.00;0.00;;;15.70;99.90;;;;;;5040280;28;20094;-60
2022/04/14 08:30:23;;;;;;;0.43;0.10;;;15.70;99.90;;;;;;5038555;28;20511;-59
2022/04/14 08:32:51;;;;;;;0.00;0.00;;;15.60;99.90;;;;;;5040207;28;20045;-59
2022/04/14 08:35:18;;;;;;;0.00;0.00;;;16.10;99.90;;;;;;5038874;28;21053;-59
2022/04/14 08:37:45;;;;;;;0.00;0.00;;;16.10;99.90;;;;;;5039271;28;20118;-59
2022/04/14 08:40:12;;;;;;;0.10;0.10;;;15.90;99.90;;;;;;5040318;28;20056;-60
2022/04/14 08:42:41;;;;;;;0.00;0.00;;;15.90;99.90;;;;;;5055403;28;20056;-59
2022/04/14 08:45:12;;;;;;;0.00;0.00;;;16.00;99.90;;;;;;5040407;28;20120;-59
2022/04/14 08:47:39;;;;;;;0.22;0.22;;;16.10;99.90;;;;;;5049201;28;20048;-59
2022/04/14 08:50:15;;;;;;;0.20;0.20;;;16.10;99.90;;;;;;5040250;28;20045;-59
2022/04/14 08:52:41;;;;;;;0.10;0.10;;;16.00;99.90;;;;;;5040263;28;20071;-59
2022/04/14 08:55:10;;;;;;;0.00;0.00;;;16.00;99.90;;;;;;5040880;28;20483;-59
2022/04/14 08:57:36;;;;;;;0.03;0.03;;;16.40;99.90;;;;;;5040154;28;20057;-59
2022/04/14 09:00:06;;;;;;;0.00;0.00;;;16.60;99.90;;;;;;5039805;28;20041;-59
2022/04/14 09:02:33;;;;;;;0.20;0.20;;;16.60;99.90;;;;;;5039780;28;20131;-59
2022/04/14 09:04:59;;;;;;;0.32;0.17;;;16.40;99.90;;;;;;5039563;28;20048;-59
2022/04/14 09:07:25;;;;;;;0.00;0.00;;;16.20;99.90;;;;;;5039376;28;20048;-59
2022/04/14 09:09:51;;;;;;;0.00;0.00;;;16.60;99.90;;;;;;5040385;28;20037;-59
2022/04/14 09:12:17;;;;;;;0.25;0.25;;;17.00;99.90;;;;;;5041185;28;20106;-59
2022/04/14 09:14:43;;;;;;;0.13;0.10;;;17.00;99.90;;;;;;5042695;28;20240;-59
2022/04/14 09:17:09;;;;;;;0.00;0.00;;;16.90;99.90;;;;;;5044201;28;20068;-60
2022/04/14 09:19:36;;;;;;;0.00;0.00;;;16.80;99.90;;;;;;5043876;28;20037;-59
2022/04/14 09:22:08;;;;;;;0.20;0.20;;;16.60;99.90;;;;;;5043209;28;20051;-60
2022/04/14 09:24:54;;;;;;;0.10;0.10;;;16.50;99.90;;;;;;5043384;28;20107;-59
2022/04/14 09:27:31;;;;;;;0.25;0.20;;;16.90;99.90;;;;;;5041470;28;20457;-59
2022/04/14 09:29:59;;;;;;;0.20;0.15;;;16.90;99.90;;;;;;5042675;28;20088;-59
2022/04/14 09:32:42;;;;;;;0.08;0.08;;;16.80;99.90;;;;;;5043014;28;20037;-59
2022/04/14 09:35:21;;;;;;;0.00;0.00;;;16.90;99.90;;;;;;5044052;28;20040;-60
2022/04/14 09:38:02;;;;;;;0.00;0.00;;;17.40;99.90;;;;;;5042551;28;20429;-60
2022/04/14 09:40:33;;;;;;;0.20;0.20;;;17.40;99.90;;;;;;5041268;28;20403;-60
2022/04/14 09:42:59;;;;;;;0.10;0.10;;;17.10;99.90;;;;;;5042430;28;20059;-60
2022/04/14 09:45:29;;;;;;;0.10;0.10;;;17.20;99.90;;;;;;5044397;28;20033;-59
2022/04/14 09:48:22;;;;;;;0.82;0.43;;;17.30;99.90;;;;;;5051723;28;20462;-59
2022/04/14 09:50:48;;;;;;;0.10;0.10;;;17.70;99.90;;;;;;5041635;28;20049;-60
2022/04/14 09:53:15;;;;;;;0.00;0.00;;;17.80;99.90;;;;;;5042720;28;20471;-61
2022/04/14 09:56:01;;;;;;;0.30;0.10;;;18.00;99.90;;;;;;5043007;28;20048;-60
2022/04/14 09:58:27;;;;;;;0.30;0.30;;;18.00;99.90;;;;;;5041028;28;20080;-60
2022/04/14 10:00:53;;;;;;;0.25;0.20;;;17.60;99.90;;;;;;5042742;28;20041;-60
2022/04/14 10:03:20;;;;;;;0.43;0.43;;;17.40;99.90;;;;;;5040949;28;20088;-60
2022/04/14 10:05:48;;;;;;;0.73;0.40;;;17.70;99.90;;;;;;5042364;28;20041;-60
2022/04/14 10:08:14;;;;;;;0.35;0.20;;;17.70;99.90;;;;;;5042357;28;20128;-61
2022/04/14 10:10:43;;;;;;;0.00;0.00;;;18.00;99.90;;;;;;5042885;28;20102;-59
2022/04/14 10:13:11;;;;;;;0.00;0.00;;;17.70;99.90;;;;;;5041422;28;20519;-61
2022/04/14 10:15:39;;;;;;;0.00;0.00;;;17.50;99.90;;;;;;5042945;28;20053;-59
2022/04/14 10:18:07;;;;;;;0.00;0.00;;;17.30;99.90;;;;;;5043170;28;20041;-59
2022/04/14 10:20:34;;;;;;;0.00;0.00;;;17.60;99.90;;;;;;5042210;28;20705;-60
2022/04/14 10:23:01;;;;;;;0.00;0.00;;;17.40;99.90;;;;;;5041981;28;20663;-60
2022/04/14 10:25:28;;;;;;;0.00;0.00;;;17.20;99.90;;;;;;5041389;28;20036;-59
2022/04/14 10:27:57;;;;;;;0.13;0.10;;;17.50;99.90;;;;;;5040432;28;20107;-60
2022/04/14 10:30:23;;;;;;;0.32;0.32;;;17.30;99.90;;;;;;5041411;28;20488;-63
2022/04/14 10:32:49;;;;;;;0.00;0.00;;;17.40;99.90;;;;;;5041080;28;20056;-60
2022/04/14 10:35:15;;;;;;;0.00;0.00;;;17.90;99.90;;;;;;5040305;28;20048;-60
2022/04/14 10:38:13;;;;;;;0.00;0.00;;;18.50;99.90;;;;;;5040392;28;20048;-60
2022/04/14 10:40:46;;;;;;;0.00;0.00;;;18.80;99.90;;;;;;5041844;28;20080;-59
2022/04/14 10:43:14;;;;;;;0.00;0.00;;;18.80;99.90;;;;;;5056295;28;20044;-61
2022/04/14 10:45:54;;;;;;;0.00;0.00;;;18.80;99.90;;;;;;5056785;28;20051;-61
2022/04/14 10:48:28;;;;;;;0.13;0.00;;;18.90;99.90;;;;;;5049626;28;20102;-60
2022/04/14 10:51:20;;;;;;;0.00;0.00;;;18.60;99.90;;;;;;5041987;28;20045;-60
2022/04/14 10:54:04;;;;;;;0.00;0.00;;;18.30;99.90;;;;;;5040053;28;20128;-60
2022/04/14 10:56:41;;;;;;;0.00;0.00;;;17.90;99.90;;;;;;5041602;28;20041;-60
2022/04/14 10:59:14;;;;;;;0.00;0.00;;;17.70;99.90;;;;;;5041103;28;20045;-60
2022/04/14 11:01:50;;;;;;;0.00;0.00;;;17.50;99.90;;;;;;5040746;28;20048;-61
2022/04/14 11:04:38;;;;;;;0.10;0.10;;;17.60;99.90;;;;;;5041078;28;20555;-60
2022/04/14 11:07:23;;;;;;;0.00;0.00;;;17.90;99.90;;;;;;5040307;28;20049;-60
2022/04/14 11:09:52;;;;;;;0.03;0.03;;;18.40;99.90;;;;;;5041020;28;20142;-60
2022/04/14 11:12:22;;;;;;;0.20;0.00;;;18.70;99.90;;;;;;5039716;28;20154;-60
2022/04/14 11:14:58;;;;;;;0.00;0.00;;;18.80;99.90;;;;;;5040971;28;20459;-58
2022/04/14 11:17:52;;;;;;;0.00;0.00;;;19.20;99.90;;;;;;5040746;28;20092;-64
2022/04/14 11:20:30;;;;;;;0.00;0.00;;;19.20;99.90;;;;;;5040311;28;20085;-56
2022/04/14 11:23:15;;;;;;;0.00;0.00;;;19.40;99.90;;;;;;5040198;28;20049;-56
2022/04/14 11:25:50;;;;;;;;;;;19.40;99.90;;;;;;5041629;28;20745;-63
2022/04/14 11:28:30;;;;;;;0.00;0.00;;;19.40;99.90;;;;;;5040243;28;19920;-63
2022/04/14 11:30:58;;;;;;;0.00;0.00;;;19.30;99.90;;;;;;5041207;28;20044;-64
2022/04/14 11:33:25;;;;;;;0.00;0.00;;;19.10;99.90;;;;;;5039971;28;20523;-63
2022/04/14 11:35:51;;;;;;;0.00;0.00;;;18.70;99.90;;;;;;5040132;28;20083;-63
2022/04/14 11:38:56;;;;;;;0.00;0.00;;;18.30;99.90;;;;;;5040730;28;20048;-64
2022/04/14 11:41:36;;;;;;;0.00;0.00;;;18.30;99.90;;;;;;5041121;28;20106;-63
2022/04/14 11:44:03;;;;;;;0.00;0.00;;;18.60;99.90;;;;;;5038417;28;20905;-63
2022/04/14 11:46:30;;;;;;;0.00;0.00;;;18.30;99.90;;;;;;5047282;28;20052;-63
2022/04/14 11:48:57;;;;;;;0.00;0.00;;;18.30;99.90;;;;;;5044678;28;20060;-63
2022/04/14 11:51:23;;;;;;;0.00;0.00;;;17.90;99.90;;;;;;5039873;28;20048;-63
2022/04/14 11:53:50;;;;;;;0.10;0.10;;;17.60;99.90;;;;;;5040986;28;20049;-63
2022/04/14 11:56:17;;;;;;;0.08;0.08;;;17.50;99.90;;;;;;5040665;28;20044;-62
2022/04/14 11:58:44;;;;;;;0.35;0.17;;;17.50;99.90;;;;;;5038823;28;20045;-63
2022/04/14 12:01:11;;;;;;;0.00;0.00;;;17.50;99.90;;;;;;5055981;28;20123;-63
2022/04/14 12:03:36;;;;;;;0.10;0.10;;;17.50;99.90;;;;;;5040860;28;20049;-64
2022/04/14 12:06:06;;;;;;;0.15;0.10;;;17.60;99.90;;;;;;5040433;28;20065;-63
2022/04/14 12:08:32;;;;;;;0.00;0.00;;;17.70;99.90;;;;;;5038069;28;20056;-63
2022/04/14 12:11:12;;;;;;;0.00;0.00;;;17.80;99.90;;;;;;5041064;28;20088;-64
2022/04/14 12:13:39;;;;;;;0.05;0.05;;;17.80;99.90;;;;;;5039721;28;20052;-64
2022/04/14 12:16:07;;;;;;;0.32;0.20;;;17.80;99.90;;;;;;5041153;28;20041;-64
2022/04/14 12:18:35;;;;;;;0.00;0.00;;;17.80;99.90;;;;;;5040111;28;20083;-64
2022/04/14 12:21:00;;;;;;;0.00;0.00;;;18.00;99.90;;;;;;5039119;28;20036;-64
2022/04/14 12:23:26;;;;;;;0.00;0.00;;;18.30;99.90;;;;;;5039641;28;20557;-64
2022/04/14 12:25:56;;;;;;;0.10;0.10;;;18.30;99.90;;;;;;5040214;28;20041;-64
2022/04/14 12:28:22;;;;;;;0.00;0.00;;;18.40;99.90;;;;;;5039389;28;20049;-64
2022/04/14 12:30:47;;;;;;;0.00;0.00;;;18.50;99.90;;;;;;5039886;28;20064;-63
2022/04/14 12:33:13;;;;;;;0.00;0.00;;;18.40;99.90;;;;;;5040200;28;20470;-62
2022/04/14 12:35:43;;;;;;;0.00;0.00;;;18.30;99.90;;;;;;5041018;28;20403;-64
2022/04/14 12:38:15;;;;;;;0.00;0.00;;;18.50;99.90;;;;;;5040781;28;20457;-64
2022/04/14 12:40:55;;;;;;;0.00;0.00;;;18.30;99.90;;;;;;5040411;28;20059;-64
2022/04/14 12:43:28;;;;;;;0.00;0.00;;;18.40;99.90;;;;;;5038933;28;20041;-60
2022/04/14 12:45:54;;;;;;;0.00;0.00;;;18.40;99.90;;;;;;5040892;28;20602;-64
2022/04/14 12:48:37;;;;;;;0.00;0.00;;;18.60;99.90;;;;;;5052805;28;20040;-63
2022/04/14 12:51:03;;;;;;;0.00;0.00;;;18.70;99.90;;;;;;5063767;28;20119;-63
2022/04/14 12:53:29;;;;;;;0.00;0.00;;;18.60;99.90;;;;;;5064153;28;20045;-63